Hunt Field
KLND : now visible

Airfield :











YOU CAN JOIN US ON...

 
LOGIN :

Register | Disclaimer

   EN    FR    IT 

 









Legend :    VFR   Marginal VFR   IFR   Intensive IFR   Very Intensive IFR
Visi :
Ceiling :
>= 8 km
>= 3000ft
5 to 8 km
1000 to 3000 ft
1500m to 5 km
500 to 1000 ft
800 to 1500m
200 to 500 ft
< 800m
< 200 ft
Symbols :   Thunderstorms  Fog  Heavy snow  Heavy precipitations  Wind > 20 kt







- Airport Elevation : 5586 ft


KLND - Hunt Field

CURRENT METAR :
  • 260353Z AUTO VRB03KT 10SM CLR 18/04 A3003 RMK AO2 SLP097 T01780039

EXPIRED METARs :
  • 260253Z AUTO 25009KT 10SM CLR 21/M04 A2998 RMK AO2 SLP080 T02061039 53024
  • 260153Z AUTO 28014KT 10SM CLR 25/M06 A2993 RMK AO2 PK WND 28035/0057 SLP063 T02501056

TAF KLND
Valid from the 26 at 00:00 until the 27 at 00:00 UTC


252320Z 2600/2624 28017G27KT P6SM SKC
FM260400 28006KT P6SM SKC
FM261500 02010KT P6SM SKC
No reported NOTAMs for that airfield.



MET'MAP, your aeronautical weather chart ! - Copyright ORBIFLY December 2007 - Disclaimer

ORBIFLY MET'MAP TEAM :

Programming & Development : Alexandra Zaïnal
Concept & Development : Baudouin d'Aumeries
Co-Development & Prog : Marc-Olivier Méhu
Technical & hardware support : Manuel Goepfert

Contact : metmap@orbifly.com




SOURCES & CREDITS :

   NOAA       Earth
Advisory